sensor_id;sensor_type;location;lat;lon;timestamp;pressure;altitude;pressure_sealevel;temperature;humidity
75317;BME280;63913;51.492;10.368;2023-04-03T00:00:56;99659.06;;;2.37;65.61
75317;BME280;63913;51.492;10.368;2023-04-03T00:03:21;99661.50;;;2.36;66.28
75317;BME280;63913;51.492;10.368;2023-04-03T00:05:47;99668.69;;;2.29;66.24
75317;BME280;63913;51.492;10.368;2023-04-03T00:08:12;99669.34;;;2.27;66.46
75317;BME280;63913;51.492;10.368;2023-04-03T00:10:38;99667.66;;;2.27;66.19
75317;BME280;63913;51.492;10.368;2023-04-03T00:13:04;99665.94;;;2.26;66.72
75317;BME280;63913;51.492;10.368;2023-04-03T00:15:30;99666.22;;;2.19;66.96
75317;BME280;63913;51.492;10.368;2023-04-03T00:17:55;99667.44;;;2.13;67.20
75317;BME280;63913;51.492;10.368;2023-04-03T00:20:20;99668.31;;;2.13;66.75
75317;BME280;63913;51.492;10.368;2023-04-03T00:22:46;99663.25;;;2.02;67.34
75317;BME280;63913;51.492;10.368;2023-04-03T00:25:11;99669.28;;;2.04;67.21
75317;BME280;63913;51.492;10.368;2023-04-03T00:27:38;99666.75;;;2.04;67.00
75317;BME280;63913;51.492;10.368;2023-04-03T00:30:07;99670.09;;;2.03;67.40
75317;BME280;63913;51.492;10.368;2023-04-03T00:32:33;99670.28;;;1.94;67.74
75317;BME280;63913;51.492;10.368;2023-04-03T00:35:02;99673.78;;;1.96;67.83
75317;BME280;63913;51.492;10.368;2023-04-03T00:37:28;99666.94;;;1.95;67.28
75317;BME280;63913;51.492;10.368;2023-04-03T00:39:54;99677.97;;;1.96;67.53
75317;BME280;63913;51.492;10.368;2023-04-03T00:42:19;99676.13;;;1.93;67.56
75317;BME280;63913;51.492;10.368;2023-04-03T00:47:13;99680.56;;;1.74;68.41
75317;BME280;63913;51.492;10.368;2023-04-03T00:49:41;99678.59;;;1.81;68.19
75317;BME280;63913;51.492;10.368;2023-04-03T00:52:11;99675.94;;;1.80;68.56
75317;BME280;63913;51.492;10.368;2023-04-03T00:54:40;99684.41;;;1.69;69.20
75317;BME280;63913;51.492;10.368;2023-04-03T00:57:06;99679.88;;;1.65;69.09
75317;BME280;63913;51.492;10.368;2023-04-03T00:59:36;99687.50;;;1.43;68.70
75317;BME280;63913;51.492;10.368;2023-04-03T01:02:04;99682.00;;;1.48;68.71
75317;BME280;63913;51.492;10.368;2023-04-03T01:04:34;99685.97;;;1.45;69.07
75317;BME280;63913;51.492;10.368;2023-04-03T01:07:15;99691.03;;;1.45;68.90
75317;BME280;63913;51.492;10.368;2023-04-03T01:09:41;99684.31;;;1.45;68.85
75317;BME280;63913;51.492;10.368;2023-04-03T01:12:17;99683.06;;;1.40;68.68
75317;BME280;63913;51.492;10.368;2023-04-03T01:14:49;99678.75;;;1.39;69.12
75317;BME280;63913;51.492;10.368;2023-04-03T01:17:38;99676.91;;;1.37;68.87
75317;BME280;63913;51.492;10.368;2023-04-03T01:25:53;99682.66;;;1.24;68.97
75317;BME280;63913;51.492;10.368;2023-04-03T01:28:28;99685.34;;;1.15;69.07
75317;BME280;63913;51.492;10.368;2023-04-03T01:33:50;99684.63;;;1.06;68.96
75317;BME280;63913;51.492;10.368;2023-04-03T01:36:21;99686.19;;;1.04;69.29
75317;BME280;63913;51.492;10.368;2023-04-03T01:38:48;99683.66;;;1.04;69.15
75317;BME280;63913;51.492;10.368;2023-04-03T01:41:13;99687.28;;;1.08;68.66
75317;BME280;63913;51.492;10.368;2023-04-03T01:43:39;99691.16;;;0.93;69.21
75317;BME280;63913;51.492;10.368;2023-04-03T01:46:05;99683.94;;;0.97;69.29
75317;BME280;63913;51.492;10.368;2023-04-03T01:48:30;99693.41;;;1.00;69.41
75317;BME280;63913;51.492;10.368;2023-04-03T01:50:56;99693.50;;;0.80;69.83
75317;BME280;63913;51.492;10.368;2023-04-03T01:53:21;99699.06;;;0.75;70.04
75317;BME280;63913;51.492;10.368;2023-04-03T01:55:46;99701.09;;;0.80;69.72
75317;BME280;63913;51.492;10.368;2023-04-03T01:58:12;99695.28;;;0.70;69.87
75317;BME280;63913;51.492;10.368;2023-04-03T02:00:37;99697.97;;;0.72;70.06
75317;BME280;63913;51.492;10.368;2023-04-03T02:03:03;99697.34;;;0.64;70.58
75317;BME280;63913;51.492;10.368;2023-04-03T02:05:28;99694.22;;;0.57;70.84
75317;BME280;63913;51.492;10.368;2023-04-03T02:07:54;99695.19;;;0.59;71.20
75317;BME280;63913;51.492;10.368;2023-04-03T02:10:19;99701.53;;;0.54;71.28
75317;BME280;63913;51.492;10.368;2023-04-03T02:12:45;99699.41;;;0.48;71.12
75317;BME280;63913;51.492;10.368;2023-04-03T02:15:10;99696.97;;;0.50;70.96
75317;BME280;63913;51.492;10.368;2023-04-03T02:17:36;99707.34;;;0.53;70.79
75317;BME280;63913;51.492;10.368;2023-04-03T02:20:02;99707.88;;;0.49;70.49
75317;BME280;63913;51.492;10.368;2023-04-03T02:22:28;99707.63;;;0.35;70.51
75317;BME280;63913;51.492;10.368;2023-04-03T02:24:53;99708.78;;;0.39;71.10
75317;BME280;63913;51.492;10.368;2023-04-03T02:27:19;99707.78;;;0.37;70.88
75317;BME280;63913;51.492;10.368;2023-04-03T02:29:45;99704.75;;;0.31;71.03
75317;BME280;63913;51.492;10.368;2023-04-03T02:32:10;99710.03;;;0.34;71.19
75317;BME280;63913;51.492;10.368;2023-04-03T02:34:35;99705.25;;;0.37;70.96
75317;BME280;63913;51.492;10.368;2023-04-03T02:37:01;99716.75;;;0.33;70.80
75317;BME280;63913;51.492;10.368;2023-04-03T02:39:27;99717.53;;;0.32;70.82
75317;BME280;63913;51.492;10.368;2023-04-03T02:41:52;99727.13;;;0.26;71.15
75317;BME280;63913;51.492;10.368;2023-04-03T02:44:22;99725.13;;;0.32;70.62
75317;BME280;63913;51.492;10.368;2023-04-03T02:46:49;99728.88;;;0.37;70.72
75317;BME280;63913;51.492;10.368;2023-04-03T02:49:14;99724.84;;;0.40;70.04
75317;BME280;63913;51.492;10.368;2023-04-03T02:51:40;99721.66;;;0.42;69.98
75317;BME280;63913;51.492;10.368;2023-04-03T02:54:06;99720.41;;;0.47;69.27
75317;BME280;63913;51.492;10.368;2023-04-03T02:56:33;99725.47;;;0.47;69.27
75317;BME280;63913;51.492;10.368;2023-04-03T02:58:59;99723.91;;;0.49;69.17
75317;BME280;63913;51.492;10.368;2023-04-03T03:01:24;99713.81;;;0.49;69.05
75317;BME280;63913;51.492;10.368;2023-04-03T03:03:50;99718.22;;;0.52;69.24
75317;BME280;63913;51.492;10.368;2023-04-03T03:06:16;99708.13;;;0.52;68.85
75317;BME280;63913;51.492;10.368;2023-04-03T03:08:42;99713.81;;;0.49;68.82
75317;BME280;63913;51.492;10.368;2023-04-03T03:11:09;99722.31;;;0.40;68.54
75317;BME280;63913;51.492;10.368;2023-04-03T03:13:35;99722.31;;;0.40;68.76
75317;BME280;63913;51.492;10.368;2023-04-03T03:16:01;99725.72;;;0.40;68.58
75317;BME280;63913;51.492;10.368;2023-04-03T03:18:28;99723.81;;;0.37;68.77
75317;BME280;63913;51.492;10.368;2023-04-03T03:20:55;99723.97;;;0.39;68.30
75317;BME280;63913;51.492;10.368;2023-04-03T03:23:23;99724.84;;;0.40;68.64
75317;BME280;63913;51.492;10.368;2023-04-03T03:25:54;99726.63;;;0.30;68.75
75317;BME280;63913;51.492;10.368;2023-04-03T03:28:20;99732.44;;;0.29;68.58
75317;BME280;63913;51.492;10.368;2023-04-03T03:30:46;99737.38;;;0.28;68.92
75317;BME280;63913;51.492;10.368;2023-04-03T03:33:13;99736.13;;;0.23;69.34
75317;BME280;63913;51.492;10.368;2023-04-03T03:35:38;99733.06;;;0.17;69.34
75317;BME280;63913;51.492;10.368;2023-04-03T03:38:04;99729.81;;;0.08;69.62
75317;BME280;63913;51.492;10.368;2023-04-03T03:40:30;99730.78;;;0.10;69.81
75317;BME280;63913;51.492;10.368;2023-04-03T03:42:56;99734.59;;;0.15;69.48
75317;BME280;63913;51.492;10.368;2023-04-03T03:45:21;99736.09;;;0.13;69.54
75317;BME280;63913;51.492;10.368;2023-04-03T03:47:46;99733.97;;;0.07;69.63
75317;BME280;63913;51.492;10.368;2023-04-03T03:50:12;99741.28;;;-0.06;70.45
75317;BME280;63913;51.492;10.368;2023-04-03T03:52:37;99740.25;;;0.02;70.10
75317;BME280;63913;51.492;10.368;2023-04-03T03:55:04;99738.75;;;0.04;69.98
75317;BME280;63913;51.492;10.368;2023-04-03T03:57:29;99739.13;;;0.09;69.93
75317;BME280;63913;51.492;10.368;2023-04-03T03:59:55;99743.81;;;0.04;69.58
75317;BME280;63913;51.492;10.368;2023-04-03T04:02:22;99738.63;;;0.03;70.04
75317;BME280;63913;51.492;10.368;2023-04-03T04:04:48;99741.66;;;0.09;69.61
75317;BME280;63913;51.492;10.368;2023-04-03T04:07:14;99743.44;;;-0.01;70.19
75317;BME280;63913;51.492;10.368;2023-04-03T04:09:39;99750.25;;;0.00;70.46
75317;BME280;63913;51.492;10.368;2023-04-03T04:12:07;99743.44;;;-0.01;70.02
75317;BME280;63913;51.492;10.368;2023-04-03T04:14:33;99747.22;;;-0.06;70.23
75317;BME280;63913;51.492;10.368;2023-04-03T04:16:59;99746.47;;;-0.05;70.02
75317;BME280;63913;51.492;10.368;2023-04-03T04:19:27;99747.09;;;0.03;70.03
75317;BME280;63913;51.492;10.368;2023-04-03T04:21:53;99740.00;;;0.09;70.00
75317;BME280;63913;51.492;10.368;2023-04-03T04:24:18;99744.59;;;0.13;69.51
75317;BME280;63913;51.492;10.368;2023-04-03T04:26:45;99745.72;;;-0.04;70.01
75317;BME280;63913;51.492;10.368;2023-04-03T04:29:12;99753.91;;;-0.06;70.30
75317;BME280;63913;51.492;10.368;2023-04-03T04:31:38;99750.50;;;-0.07;69.88
75317;BME280;63913;51.492;10.368;2023-04-03T04:34:03;99759.63;;;-0.09;70.22
75317;BME280;63913;51.492;10.368;2023-04-03T04:36:29;99749.25;;;-0.12;70.69
75317;BME280;63913;51.492;10.368;2023-04-03T04:38:54;99756.31;;;-0.18;70.84
75317;BME280;63913;51.492;10.368;2023-04-03T04:41:22;99752.25;;;-0.16;70.31
75317;BME280;63913;51.492;10.368;2023-04-03T04:43:49;99756.81;;;-0.12;70.56
75317;BME280;63913;51.492;10.368;2023-04-03T04:46:15;99754.91;;;-0.14;70.37
75317;BME280;63913;51.492;10.368;2023-04-03T04:48:46;99759.09;;;-0.15;70.36
75317;BME280;63913;51.492;10.368;2023-04-03T04:51:12;99760.09;;;-0.13;70.31
75317;BME280;63913;51.492;10.368;2023-04-03T04:53:38;99756.56;;;-0.15;70.34
75317;BME280;63913;51.492;10.368;2023-04-03T04:56:04;99764.41;;;-0.12;70.60
75317;BME280;63913;51.492;10.368;2023-04-03T04:58:32;99775.78;;;-0.17;70.41
75317;BME280;63913;51.492;10.368;2023-04-03T05:01:10;99774.50;;;-0.12;70.48
75317;BME280;63913;51.492;10.368;2023-04-03T05:03:43;99780.94;;;-0.15;70.31
75317;BME280;63913;51.492;10.368;2023-04-03T05:06:09;99778.69;;;-0.12;70.60
75317;BME280;63913;51.492;10.368;2023-04-03T05:08:35;99780.31;;;-0.13;70.61
75317;BME280;63913;51.492;10.368;2023-04-03T05:11:01;99777.31;;;-0.09;70.29
75317;BME280;63913;51.492;10.368;2023-04-03T05:13:27;99782.09;;;-0.12;70.45
75317;BME280;63913;51.492;10.368;2023-04-03T05:15:54;99785.13;;;-0.06;70.17
75317;BME280;63913;51.492;10.368;2023-04-03T05:18:20;99790.94;;;-0.07;70.55
75317;BME280;63913;51.492;10.368;2023-04-03T05:20:48;99791.94;;;-0.15;70.11
75317;BME280;63913;51.492;10.368;2023-04-03T05:23:14;99791.31;;;-0.12;70.45
75317;BME280;63913;51.492;10.368;2023-04-03T05:25:40;99792.34;;;-0.10;70.51
75317;BME280;63913;51.492;10.368;2023-04-03T05:28:07;99793.72;;;-0.14;70.71
75317;BME280;63913;51.492;10.368;2023-04-03T05:30:33;99790.16;;;-0.16;70.51
75317;BME280;63913;51.492;10.368;2023-04-03T05:33:00;99788.03;;;-0.11;70.43
75317;BME280;63913;51.492;10.368;2023-04-03T05:35:38;99794.88;;;-0.10;70.71
75317;BME280;63913;51.492;10.368;2023-04-03T05:38:07;99792.44;;;-0.19;70.68
75317;BME280;63913;51.492;10.368;2023-04-03T05:40:32;99788.28;;;-0.18;71.01
75317;BME280;63913;51.492;10.368;2023-04-03T05:42:58;99791.19;;;-0.14;70.82
75317;BME280;63913;51.492;10.368;2023-04-03T05:45:25;99793.72;;;-0.14;71.08
75317;BME280;63913;51.492;10.368;2023-04-03T05:47:51;99798.38;;;-0.18;71.14
75317;BME280;63913;51.492;10.368;2023-04-03T05:50:16;99805.88;;;-0.10;70.37
75317;BME280;63913;51.492;10.368;2023-04-03T05:52:44;99805.88;;;-0.10;70.96
75317;BME280;63913;51.492;10.368;2023-04-03T05:55:11;99803.72;;;-0.05;70.71
75317;BME280;63913;51.492;10.368;2023-04-03T05:57:38;99804.13;;;-0.01;70.58
75317;BME280;63913;51.492;10.368;2023-04-03T06:00:05;99803.59;;;0.04;69.93
75317;BME280;63913;51.492;10.368;2023-04-03T06:02:39;99803.47;;;0.02;70.11
75317;BME280;63913;51.492;10.368;2023-04-03T06:05:08;99810.44;;;0.05;70.08
75317;BME280;63913;51.492;10.368;2023-04-03T06:07:34;99808.94;;;0.07;69.81
75317;BME280;63913;51.492;10.368;2023-04-03T06:10:01;99814.34;;;0.11;70.19
75317;BME280;63913;51.492;10.368;2023-04-03T06:12:26;99815.75;;;0.18;70.17
75317;BME280;63913;51.492;10.368;2023-04-03T06:14:54;99820.81;;;0.18;70.54
75317;BME280;63913;51.492;10.368;2023-04-03T06:17:19;99812.31;;;0.17;69.89
75317;BME280;63913;51.492;10.368;2023-04-03T06:19:45;99817.78;;;0.22;69.52
75317;BME280;63913;51.492;10.368;2023-04-03T06:22:11;99814.75;;;0.26;69.16
75317;BME280;63913;51.492;10.368;2023-04-03T06:24:37;99812.63;;;0.30;68.72
75317;BME280;63913;51.492;10.368;2023-04-03T06:27:03;99809.56;;;0.14;69.23
75317;BME280;63913;51.492;10.368;2023-04-03T06:29:28;99812.97;;;0.25;68.53
75317;BME280;63913;51.492;10.368;2023-04-03T06:31:54;99821.97;;;0.31;68.36
75317;BME280;63913;51.492;10.368;2023-04-03T06:34:19;99823.84;;;0.34;67.89
75317;BME280;63913;51.492;10.368;2023-04-03T06:36:45;99824.25;;;0.38;66.96
75317;BME280;63913;51.492;10.368;2023-04-03T06:39:19;99821.06;;;0.41;67.09
75317;BME280;63913;51.492;10.368;2023-04-03T06:41:46;99829.06;;;0.46;66.95
75317;BME280;63913;51.492;10.368;2023-04-03T06:44:11;99836.91;;;0.49;67.13
75317;BME280;63913;51.492;10.368;2023-04-03T06:46:38;99834.88;;;0.55;66.35
75317;BME280;63913;51.492;10.368;2023-04-03T06:49:05;99846.25;;;0.40;65.45
75317;BME280;63913;51.492;10.368;2023-04-03T06:51:33;99852.84;;;0.48;64.87
75317;BME280;63913;51.492;10.368;2023-04-03T06:53:59;99852.44;;;0.53;65.15
75317;BME280;63913;51.492;10.368;2023-04-03T06:56:25;99855.34;;;0.58;65.32
75317;BME280;63913;51.492;10.368;2023-04-03T06:58:51;99869.41;;;0.64;64.82
75317;BME280;63913;51.492;10.368;2023-04-03T07:01:19;99864.72;;;0.69;63.97
75317;BME280;63913;51.492;10.368;2023-04-03T07:03:45;99874.72;;;0.67;64.64
75317;BME280;63913;51.492;10.368;2023-04-03T07:06:12;99888.66;;;0.72;64.40
75317;BME280;63913;51.492;10.368;2023-04-03T07:08:39;99884.97;;;0.69;64.67
75317;BME280;63913;51.492;10.368;2023-04-03T07:11:05;99888.00;;;0.75;65.56
75317;BME280;63913;51.492;10.368;2023-04-03T07:13:31;99895.47;;;0.84;64.66
75317;BME280;63913;51.492;10.368;2023-04-03T07:15:56;99899.50;;;0.92;64.74
75317;BME280;63913;51.492;10.368;2023-04-03T07:18:22;99893.19;;;0.97;64.20
75317;BME280;63913;51.492;10.368;2023-04-03T07:20:48;99897.75;;;1.01;65.24
75317;BME280;63913;51.492;10.368;2023-04-03T07:23:14;99901.91;;;1.00;64.85
75317;BME280;63913;51.492;10.368;2023-04-03T07:25:47;99900.78;;;0.97;64.49
75317;BME280;63913;51.492;10.368;2023-04-03T07:28:13;99905.97;;;0.98;64.65
75317;BME280;63913;51.492;10.368;2023-04-03T07:30:47;99910.78;;;1.05;64.86
75317;BME280;63913;51.492;10.368;2023-04-03T07:33:14;99906.84;;;1.09;64.14
75317;BME280;63913;51.492;10.368;2023-04-03T07:35:40;99910.25;;;1.09;63.80
75317;BME280;63913;51.492;10.368;2023-04-03T07:38:06;99913.94;;;1.13;63.85
75317;BME280;63913;51.492;10.368;2023-04-03T07:40:32;99912.78;;;1.20;63.83
75317;BME280;63913;51.492;10.368;2023-04-03T07:42:58;99915.06;;;1.27;63.82
75317;BME280;63913;51.492;10.368;2023-04-03T07:45:24;99904.94;;;1.27;62.58
75317;BME280;63913;51.492;10.368;2023-04-03T07:47:50;99909.97;;;1.37;63.01
75317;BME280;63913;51.492;10.368;2023-04-03T07:50:15;99905.13;;;1.40;63.85
75317;BME280;63913;51.492;10.368;2023-04-03T07:52:42;99914.28;;;1.38;63.33
75317;BME280;63913;51.492;10.368;2023-04-03T07:55:07;99918.34;;;1.36;63.18
75317;BME280;63913;51.492;10.368;2023-04-03T07:57:33;99917.31;;;1.44;63.59
75317;BME280;63913;51.492;10.368;2023-04-03T07:59:58;99920.47;;;1.41;63.15
75317;BME280;63913;51.492;10.368;2023-04-03T08:02:24;99915.88;;;1.47;62.88
75317;BME280;63913;51.492;10.368;2023-04-03T08:04:49;99921.84;;;1.48;63.13
75317;BME280;63913;51.492;10.368;2023-04-03T08:07:15;99913.88;;;1.43;63.20
75317;BME280;63913;51.492;10.368;2023-04-03T08:09:40;99923.41;;;1.46;63.40
75317;BME280;63913;51.492;10.368;2023-04-03T08:12:06;99922.00;;;1.39;63.18
75317;BME280;63913;51.492;10.368;2023-04-03T08:14:32;99920.13;;;1.37;63.04
75317;BME280;63913;51.492;10.368;2023-04-03T08:17:00;99924.66;;;1.41;63.17
75317;BME280;63913;51.492;10.368;2023-04-03T08:19:26;99926.91;;;1.48;63.34
75317;BME280;63913;51.492;10.368;2023-04-03T08:21:51;99926.44;;;1.42;62.50
75317;BME280;63913;51.492;10.368;2023-04-03T08:24:16;99928.06;;;1.51;62.96
75317;BME280;63913;51.492;10.368;2023-04-03T08:26:42;99934.38;;;1.57;63.16
75317;BME280;63913;51.492;10.368;2023-04-03T08:29:07;99925.72;;;1.65;62.26
75317;BME280;63913;51.492;10.368;2023-04-03T08:31:33;99911.66;;;1.68;60.95
75317;BME280;63913;51.492;10.368;2023-04-03T08:33:58;99927.75;;;1.69;60.55
75317;BME280;63913;51.492;10.368;2023-04-03T08:36:26;99915.09;;;1.69;60.07
75317;BME280;63913;51.492;10.368;2023-04-03T08:38:53;99926.59;;;1.75;59.96
75317;BME280;63913;51.492;10.368;2023-04-03T08:49:22;99921.53;;;1.75;59.70
75317;BME280;63913;51.492;10.368;2023-04-03T08:51:51;99913.75;;;1.84;59.29
75317;BME280;63913;51.492;10.368;2023-04-03T08:54:24;99913.75;;;1.84;59.01
75317;BME280;63913;51.492;10.368;2023-04-03T08:56:53;99912.25;;;1.86;59.30
75317;BME280;63913;51.492;10.368;2023-04-03T08:59:26;99915.97;;;2.01;58.50
75317;BME280;63913;51.492;10.368;2023-04-03T09:01:53;99913.91;;;2.07;57.49
75317;BME280;63913;51.492;10.368;2023-04-03T09:04:19;99905.50;;;2.18;56.58
75317;BME280;63913;51.492;10.368;2023-04-03T09:06:57;99902.97;;;2.85;55.54
75317;BME280;63913;51.492;10.368;2023-04-03T09:09:38;99901.97;;;3.28;53.66
75317;BME280;63913;51.492;10.368;2023-04-03T09:12:24;99895.91;;;3.38;53.15
75317;BME280;63913;51.492;10.368;2023-04-03T09:20:19;99901.31;;;2.86;53.36
75317;BME280;63913;51.492;10.368;2023-04-03T09:22:46;99893.78;;;3.21;52.08
75317;BME280;63913;51.492;10.368;2023-04-03T09:25:15;99907.03;;;3.28;52.78
75317;BME280;63913;51.492;10.368;2023-04-03T09:27:42;99894.22;;;4.83;50.40
75317;BME280;63913;51.492;10.368;2023-04-03T09:30:14;99894.03;;;5.70;48.15
75317;BME280;63913;51.492;10.368;2023-04-03T09:32:40;99878.59;;;6.36;45.17
75317;BME280;63913;51.492;10.368;2023-04-03T09:37:53;99882.63;;;7.03;44.56
75317;BME280;63913;51.492;10.368;2023-04-03T09:43:52;99892.13;;;7.64;42.52
75317;BME280;63913;51.492;10.368;2023-04-03T09:45:47;99883.38;;;7.76;42.08
75317;BME280;63913;51.492;10.368;2023-04-03T09:50:38;99872.91;;;8.18;41.75
75317;BME280;63913;51.492;10.368;2023-04-03T09:53:29;99867.34;;;8.41;41.60
75317;BME280;63913;51.492;10.368;2023-04-03T09:55:56;99869.81;;;8.40;42.36
75317;BME280;63913;51.492;10.368;2023-04-03T09:58:25;99879.59;;;8.00;41.13
75317;BME280;63913;51.492;10.368;2023-04-03T10:00:56;99883.75;;;6.94;43.44
75317;BME280;63913;51.492;10.368;2023-04-03T10:03:24;99884.44;;;6.91;44.57
75317;BME280;63913;51.492;10.368;2023-04-03T10:05:50;99872.53;;;6.77;44.32
75317;BME280;63913;51.492;10.368;2023-04-03T10:08:28;99870.28;;;7.11;43.92
75317;BME280;63913;51.492;10.368;2023-04-03T10:11:14;99872.47;;;7.34;44.05
75317;BME280;63913;51.492;10.368;2023-04-03T10:14:01;99873.44;;;7.51;42.44
75317;BME280;63913;51.492;10.368;2023-04-03T10:16:52;99868.94;;;7.32;43.14
75317;BME280;63913;51.492;10.368;2023-04-03T10:19:41;99879.88;;;7.44;43.36
75317;BME280;63913;51.492;10.368;2023-04-03T10:24:57;99871.00;;;6.66;45.09
75317;BME280;63913;51.492;10.368;2023-04-03T10:27:34;99870.00;;;6.49;44.57
75317;BME280;63913;51.492;10.368;2023-04-03T10:33:06;99864.94;;;6.36;47.64
75317;BME280;63913;51.492;10.368;2023-04-03T10:35:42;99867.19;;;6.44;47.73
75317;BME280;63913;51.492;10.368;2023-04-03T10:38:33;99851.53;;;6.25;47.23
75317;BME280;63913;51.492;10.368;2023-04-03T10:41:12;99858.16;;;6.08;46.14
75317;BME280;63913;51.492;10.368;2023-04-03T10:43:57;99857.63;;;6.27;46.52
75317;BME280;63913;51.492;10.368;2023-04-03T10:46:36;99864.50;;;5.74;47.64
75317;BME280;63913;51.492;10.368;2023-04-03T10:51:45;99874.09;;;5.38;48.46
75317;BME280;63913;51.492;10.368;2023-04-03T10:56:43;99866.41;;;4.86;50.59
75317;BME280;63913;51.492;10.368;2023-04-03T10:59:32;99865.28;;;4.69;50.36
75317;BME280;63913;51.492;10.368;2023-04-03T11:02:23;99864.13;;;4.77;51.19
75317;BME280;63913;51.492;10.368;2023-04-03T11:04:53;99856.25;;;4.74;51.56
75317;BME280;63913;51.492;10.368;2023-04-03T11:07:22;99864.72;;;4.86;51.31
75317;BME280;63913;51.492;10.368;2023-04-03T11:09:55;99864.19;;;4.79;52.00
75317;BME280;63913;51.492;10.368;2023-04-03T11:12:31;99860.50;;;4.87;51.90
75317;BME280;63913;51.492;10.368;2023-04-03T11:15:01;99862.91;;;5.10;52.64
75317;BME280;63913;51.492;10.368;2023-04-03T11:17:35;99854.09;;;5.18;52.64
75317;BME280;63913;51.492;10.368;2023-04-03T11:20:16;99856.06;;;5.49;50.72
75317;BME280;63913;51.492;10.368;2023-04-03T11:22:45;99844.91;;;6.01;50.98
75317;BME280;63913;51.492;10.368;2023-04-03T11:27:54;99838.41;;;6.62;50.12
75317;BME280;63913;51.492;10.368;2023-04-03T11:30:25;99834.44;;;6.67;49.72
75317;BME280;63913;51.492;10.368;2023-04-03T11:33:12;99828.34;;;6.50;47.90
75317;BME280;63913;51.492;10.368;2023-04-03T11:35:44;99818.00;;;6.34;47.29
75317;BME280;63913;51.492;10.368;2023-04-03T11:38:17;99826.94;;;6.12;48.79
75317;BME280;63913;51.492;10.368;2023-04-03T11:40:45;99820.88;;;5.97;48.46
75317;BME280;63913;51.492;10.368;2023-04-03T11:43:25;99811.66;;;5.99;48.25
75317;BME280;63913;51.492;10.368;2023-04-03T11:46:09;99815.09;;;6.00;48.34
75317;BME280;63913;51.492;10.368;2023-04-03T11:53:41;99811.88;;;6.17;45.66
75317;BME280;63913;51.492;10.368;2023-04-03T12:01:53;99808.09;;;6.53;46.04
75317;BME280;63913;51.492;10.368;2023-04-03T12:04:24;99807.19;;;6.38;45.47
75317;BME280;63913;51.492;10.368;2023-04-03T12:06:59;99809.31;;;5.76;44.88
75317;BME280;63913;51.492;10.368;2023-04-03T12:09:31;99813.94;;;5.68;45.34
75317;BME280;63913;51.492;10.368;2023-04-03T12:11:59;99809.75;;;5.56;46.19
75317;BME280;63913;51.492;10.368;2023-04-03T12:14:27;99806.91;;;5.38;45.31
75317;BME280;63913;51.492;10.368;2023-04-03T12:16:54;99810.06;;;5.34;46.72
75317;BME280;63913;51.492;10.368;2023-04-03T12:19:38;99801.03;;;5.39;46.23
75317;BME280;63913;51.492;10.368;2023-04-03T12:22:15;99799.28;;;5.51;46.99
75317;BME280;63913;51.492;10.368;2023-04-03T12:24:44;99810.22;;;5.63;46.19
75317;BME280;63913;51.492;10.368;2023-04-03T12:27:29;99807.41;;;5.59;46.00
75317;BME280;63913;51.492;10.368;2023-04-03T12:32:35;99784.97;;;5.94;45.16
75317;BME280;63913;51.492;10.368;2023-04-03T12:35:23;99785.31;;;6.28;44.26
75317;BME280;63913;51.492;10.368;2023-04-03T12:38:14;99792.09;;;6.28;44.63
75317;BME280;63913;51.492;10.368;2023-04-03T12:46:02;99781.16;;;6.73;44.80
75317;BME280;63913;51.492;10.368;2023-04-03T12:48:30;99784.16;;;6.95;43.08
75317;BME280;63913;51.492;10.368;2023-04-03T12:50:58;99782.19;;;7.20;43.85
75317;BME280;63913;51.492;10.368;2023-04-03T12:53:27;99773.38;;;7.46;41.91
75317;BME280;63913;51.492;10.368;2023-04-03T12:55:56;99782.28;;;7.53;40.71
75317;BME280;63913;51.492;10.368;2023-04-03T12:58:25;99769.44;;;7.68;41.54
75317;BME280;63913;51.492;10.368;2023-04-03T13:01:10;99758.72;;;7.91;42.05
75317;BME280;63913;51.492;10.368;2023-04-03T13:03:39;99754.78;;;7.65;39.69
75317;BME280;63913;51.492;10.368;2023-04-03T13:06:05;99751.13;;;7.29;39.26
75317;BME280;63913;51.492;10.368;2023-04-03T13:08:31;99748.19;;;7.85;41.87
75317;BME280;63913;51.492;10.368;2023-04-03T13:11:09;99754.19;;;8.18;39.79
75317;BME280;63913;51.492;10.368;2023-04-03T13:13:36;99743.38;;;8.39;39.79
75317;BME280;63913;51.492;10.368;2023-04-03T13:16:11;99745.34;;;8.45;39.06
75317;BME280;63913;51.492;10.368;2023-04-03T13:18:37;99739.50;;;8.48;37.74
75317;BME280;63913;51.492;10.368;2023-04-03T13:21:07;99740.19;;;8.61;37.89
75317;BME280;63913;51.492;10.368;2023-04-03T13:23:35;99727.00;;;8.54;37.77
75317;BME280;63913;51.492;10.368;2023-04-03T13:26:03;99731.13;;;8.34;38.16
75317;BME280;63913;51.492;10.368;2023-04-03T13:28:31;99741.53;;;8.37;38.77
75317;BME280;63913;51.492;10.368;2023-04-03T13:31:07;99731.84;;;8.31;38.63
75317;BME280;63913;51.492;10.368;2023-04-03T13:33:36;99748.66;;;7.78;39.89
75317;BME280;63913;51.492;10.368;2023-04-03T13:36:06;99745.78;;;7.10;40.76
75317;BME280;63913;51.492;10.368;2023-04-03T13:38:33;99736.19;;;6.91;41.44
75317;BME280;63913;51.492;10.368;2023-04-03T13:41:23;99749.38;;;6.99;43.07
75317;BME280;63913;51.492;10.368;2023-04-03T13:43:48;99745.53;;;6.90;42.11
75317;BME280;63913;51.492;10.368;2023-04-03T13:48:42;99756.41;;;6.72;42.80
75317;BME280;63913;51.492;10.368;2023-04-03T13:53:45;99736.28;;;7.23;41.26
75317;BME280;63913;51.492;10.368;2023-04-03T13:56:33;99739.50;;;7.66;39.00
75317;BME280;63913;51.492;10.368;2023-04-03T14:01:37;99719.66;;;8.11;38.91
75317;BME280;63913;51.492;10.368;2023-04-03T14:04:14;99723.75;;;7.75;38.95
75317;BME280;63913;51.492;10.368;2023-04-03T14:06:40;99728.59;;;7.54;39.98
75317;BME280;63913;51.492;10.368;2023-04-03T14:09:05;99731.94;;;7.37;40.71
75317;BME280;63913;51.492;10.368;2023-04-03T14:11:31;99732.03;;;7.55;42.03
75317;BME280;63913;51.492;10.368;2023-04-03T14:14:00;99730.06;;;8.14;39.18
75317;BME280;63913;51.492;10.368;2023-04-03T14:16:30;99729.06;;;8.61;39.05
75317;BME280;63913;51.492;10.368;2023-04-03T14:18:57;99718.69;;;8.93;38.61
75317;BME280;63913;51.492;10.368;2023-04-03T14:21:22;99711.41;;;9.38;35.89